sensor_id;sensor_type;location;lat;lon;timestamp;P1;durP1;ratioP1;P2;durP2;ratioP2
2035;SDS011;23642;42.658;23.350;2023-04-10T00:02:18;104.47;;;98.07;;
2035;SDS011;23642;42.658;23.350;2023-04-10T00:04:46;105.10;;;98.80;;
2035;SDS011;23642;42.658;23.350;2023-04-10T00:07:13;109.73;;;103.03;;
2035;SDS011;23642;42.658;23.350;2023-04-10T00:09:40;108.10;;;101.50;;
2035;SDS011;23642;42.658;23.350;2023-04-10T00:12:07;105.90;;;99.43;;
2035;SDS011;23642;42.658;23.350;2023-04-10T00:14:35;108.40;;;101.90;;
2035;SDS011;23642;42.658;23.350;2023-04-10T00:17:02;108.17;;;101.80;;
2035;SDS011;23642;42.658;23.350;2023-04-10T00:19:28;105.60;;;99.10;;
2035;SDS011;23642;42.658;23.350;2023-04-10T00:21:56;107.33;;;100.70;;
2035;SDS011;23642;42.658;23.350;2023-04-10T00:24:25;105.40;;;99.00;;
2035;SDS011;23642;42.658;23.350;2023-04-10T00:26:52;108.17;;;101.73;;
2035;SDS011;23642;42.658;23.350;2023-04-10T00:29:21;106.17;;;99.87;;
2035;SDS011;23642;42.658;23.350;2023-04-10T00:31:48;109.17;;;102.77;;
2035;SDS011;23642;42.658;23.350;2023-04-10T00:34:15;110.60;;;104.10;;
2035;SDS011;23642;42.658;23.350;2023-04-10T00:36:42;108.37;;;101.87;;
2035;SDS011;23642;42.658;23.350;2023-04-10T00:39:12;110.50;;;104.00;;
2035;SDS011;23642;42.658;23.350;2023-04-10T00:41:39;106.50;;;100.17;;
2035;SDS011;23642;42.658;23.350;2023-04-10T00:44:06;108.37;;;102.07;;
2035;SDS011;23642;42.658;23.350;2023-04-10T00:46:33;109.50;;;103.10;;
2035;SDS011;23642;42.658;23.350;2023-04-10T00:49:02;110.67;;;104.27;;
2035;SDS011;23642;42.658;23.350;2023-04-10T00:51:30;107.97;;;101.57;;
2035;SDS011;23642;42.658;23.350;2023-04-10T00:53:57;110.80;;;104.40;;
2035;SDS011;23642;42.658;23.350;2023-04-10T00:56:28;109.80;;;103.50;;
2035;SDS011;23642;42.658;23.350;2023-04-10T00:58:56;108.53;;;102.23;;
2035;SDS011;23642;42.658;23.350;2023-04-10T01:01:25;105.63;;;99.50;;
2035;SDS011;23642;42.658;23.350;2023-04-10T01:03:52;107.40;;;101.07;;
2035;SDS011;23642;42.658;23.350;2023-04-10T01:06:22;107.40;;;101.17;;
2035;SDS011;23642;42.658;23.350;2023-04-10T01:08:59;109.70;;;103.40;;
2035;SDS011;23642;42.658;23.350;2023-04-10T01:11:36;107.50;;;101.20;;
2035;SDS011;23642;42.658;23.350;2023-04-10T01:14:11;109.67;;;103.30;;
2035;SDS011;23642;42.658;23.350;2023-04-10T01:16:45;106.87;;;100.40;;
2035;SDS011;23642;42.658;23.350;2023-04-10T01:19:25;105.13;;;98.83;;
2035;SDS011;23642;42.658;23.350;2023-04-10T01:22:01;107.90;;;101.40;;
2035;SDS011;23642;42.658;23.350;2023-04-10T01:24:38;111.50;;;104.70;;
2035;SDS011;23642;42.658;23.350;2023-04-10T01:27:25;104.87;;;98.47;;
2035;SDS011;23642;42.658;23.350;2023-04-10T01:30:03;106.93;;;100.60;;
2035;SDS011;23642;42.658;23.350;2023-04-10T01:32:36;108.90;;;102.00;;
2035;SDS011;23642;42.658;23.350;2023-04-10T01:35:08;105.67;;;99.27;;
2035;SDS011;23642;42.658;23.350;2023-04-10T01:37:37;105.83;;;99.33;;
2035;SDS011;23642;42.658;23.350;2023-04-10T01:40:08;107.47;;;100.97;;
2035;SDS011;23642;42.658;23.350;2023-04-10T01:42:38;110.73;;;103.63;;
2035;SDS011;23642;42.658;23.350;2023-04-10T01:45:12;107.40;;;100.90;;
2035;SDS011;23642;42.658;23.350;2023-04-10T01:47:43;107.23;;;100.83;;
2035;SDS011;23642;42.658;23.350;2023-04-10T01:50:10;105.30;;;99.00;;
2035;SDS011;23642;42.658;23.350;2023-04-10T01:52:39;104.43;;;97.50;;
2035;SDS011;23642;42.658;23.350;2023-04-10T01:55:08;102.93;;;96.73;;
2035;SDS011;23642;42.658;23.350;2023-04-10T01:57:35;106.63;;;100.10;;
2035;SDS011;23642;42.658;23.350;2023-04-10T02:00:02;104.13;;;97.93;;
2035;SDS011;23642;42.658;23.350;2023-04-10T02:02:31;102.90;;;96.70;;
2035;SDS011;23642;42.658;23.350;2023-04-10T02:04:59;100.57;;;94.47;;
2035;SDS011;23642;42.658;23.350;2023-04-10T02:07:27;101.57;;;95.47;;
2035;SDS011;23642;42.658;23.350;2023-04-10T02:10:01;101.40;;;95.27;;
2035;SDS011;23642;42.658;23.350;2023-04-10T02:12:35;105.40;;;99.10;;
2035;SDS011;23642;42.658;23.350;2023-04-10T02:15:09;104.77;;;98.47;;
2035;SDS011;23642;42.658;23.350;2023-04-10T02:17:38;103.80;;;97.60;;
2035;SDS011;23642;42.658;23.350;2023-04-10T02:20:07;106.43;;;99.93;;
2035;SDS011;23642;42.658;23.350;2023-04-10T02:22:36;105.83;;;99.33;;
2035;SDS011;23642;42.658;23.350;2023-04-10T02:25:08;103.40;;;96.90;;
2035;SDS011;23642;42.658;23.350;2023-04-10T02:27:36;107.83;;;101.43;;
2035;SDS011;23642;42.658;23.350;2023-04-10T02:30:03;107.90;;;101.60;;
2035;SDS011;23642;42.658;23.350;2023-04-10T02:32:31;109.07;;;102.53;;
2035;SDS011;23642;42.658;23.350;2023-04-10T02:34:59;105.03;;;98.63;;
2035;SDS011;23642;42.658;23.350;2023-04-10T02:37:29;105.43;;;98.90;;
2035;SDS011;23642;42.658;23.350;2023-04-10T02:39:56;105.37;;;98.87;;
2035;SDS011;23642;42.658;23.350;2023-04-10T02:42:23;107.00;;;100.50;;
2035;SDS011;23642;42.658;23.350;2023-04-10T02:44:50;106.13;;;99.63;;
2035;SDS011;23642;42.658;23.350;2023-04-10T02:47:17;105.63;;;98.73;;
2035;SDS011;23642;42.658;23.350;2023-04-10T02:49:43;107.50;;;101.00;;
2035;SDS011;23642;42.658;23.350;2023-04-10T02:52:11;104.60;;;98.03;;
2035;SDS011;23642;42.658;23.350;2023-04-10T02:54:38;105.50;;;98.50;;
2035;SDS011;23642;42.658;23.350;2023-04-10T02:57:05;104.80;;;98.30;;
2035;SDS011;23642;42.658;23.350;2023-04-10T02:59:32;107.90;;;101.17;;
2035;SDS011;23642;42.658;23.350;2023-04-10T03:01:59;104.63;;;97.97;;
2035;SDS011;23642;42.658;23.350;2023-04-10T03:04:26;104.87;;;98.43;;
2035;SDS011;23642;42.658;23.350;2023-04-10T03:06:54;106.90;;;100.30;;
2035;SDS011;23642;42.658;23.350;2023-04-10T03:09:22;104.10;;;97.40;;
2035;SDS011;23642;42.658;23.350;2023-04-10T03:11:49;101.93;;;95.63;;
2035;SDS011;23642;42.658;23.350;2023-04-10T03:14:16;103.73;;;97.13;;
2035;SDS011;23642;42.658;23.350;2023-04-10T03:16:49;103.57;;;97.17;;
2035;SDS011;23642;42.658;23.350;2023-04-10T03:19:16;101.97;;;95.57;;
2035;SDS011;23642;42.658;23.350;2023-04-10T03:21:44;100.10;;;93.50;;
2035;SDS011;23642;42.658;23.350;2023-04-10T03:24:10;100.90;;;94.47;;
2035;SDS011;23642;42.658;23.350;2023-04-10T03:26:39;101.50;;;94.90;;
2035;SDS011;23642;42.658;23.350;2023-04-10T03:29:06;101.87;;;95.37;;
2035;SDS011;23642;42.658;23.350;2023-04-10T03:31:33;102.07;;;95.33;;
2035;SDS011;23642;42.658;23.350;2023-04-10T03:34:00;101.03;;;94.03;;
2035;SDS011;23642;42.658;23.350;2023-04-10T03:36:27;96.87;;;90.67;;
2035;SDS011;23642;42.658;23.350;2023-04-10T03:38:54;101.57;;;95.03;;
2035;SDS011;23642;42.658;23.350;2023-04-10T03:41:21;101.53;;;94.10;;
2035;SDS011;23642;42.658;23.350;2023-04-10T03:43:51;99.70;;;93.03;;
2035;SDS011;23642;42.658;23.350;2023-04-10T03:46:17;101.00;;;94.50;;
2035;SDS011;23642;42.658;23.350;2023-04-10T03:48:44;99.87;;;93.23;;
2035;SDS011;23642;42.658;23.350;2023-04-10T03:51:11;99.37;;;92.67;;
2035;SDS011;23642;42.658;23.350;2023-04-10T03:56:44;102.37;;;95.47;;
2035;SDS011;23642;42.658;23.350;2023-04-10T03:59:12;100.77;;;94.00;;
2035;SDS011;23642;42.658;23.350;2023-04-10T04:01:39;104.83;;;97.43;;
2035;SDS011;23642;42.658;23.350;2023-04-10T04:04:07;102.30;;;95.40;;
2035;SDS011;23642;42.658;23.350;2023-04-10T04:06:36;101.70;;;94.70;;
2035;SDS011;23642;42.658;23.350;2023-04-10T04:09:03;102.40;;;95.50;;
2035;SDS011;23642;42.658;23.350;2023-04-10T04:11:30;102.53;;;95.53;;
2035;SDS011;23642;42.658;23.350;2023-04-10T04:13:57;101.43;;;94.37;;
2035;SDS011;23642;42.658;23.350;2023-04-10T04:16:26;102.07;;;94.60;;
2035;SDS011;23642;42.658;23.350;2023-04-10T04:18:53;102.20;;;95.30;;
2035;SDS011;23642;42.658;23.350;2023-04-10T04:21:20;101.57;;;94.67;;
2035;SDS011;23642;42.658;23.350;2023-04-10T04:23:47;100.57;;;93.73;;
2035;SDS011;23642;42.658;23.350;2023-04-10T04:26:17;100.93;;;94.00;;
2035;SDS011;23642;42.658;23.350;2023-04-10T04:28:44;101.63;;;94.73;;
2035;SDS011;23642;42.658;23.350;2023-04-10T04:31:11;103.47;;;96.00;;
2035;SDS011;23642;42.658;23.350;2023-04-10T04:33:39;102.47;;;95.23;;
2035;SDS011;23642;42.658;23.350;2023-04-10T04:36:06;104.40;;;96.67;;
2035;SDS011;23642;42.658;23.350;2023-04-10T04:42:09;101.47;;;94.13;;
2035;SDS011;23642;42.658;23.350;2023-04-10T04:44:35;102.53;;;95.17;;
2035;SDS011;23642;42.658;23.350;2023-04-10T04:47:02;103.30;;;96.20;;
2035;SDS011;23642;42.658;23.350;2023-04-10T04:49:30;102.07;;;95.07;;
2035;SDS011;23642;42.658;23.350;2023-04-10T04:51:57;102.00;;;94.13;;
2035;SDS011;23642;42.658;23.350;2023-04-10T04:54:25;104.73;;;96.40;;
2035;SDS011;23642;42.658;23.350;2023-04-10T04:56:51;103.13;;;95.93;;
2035;SDS011;23642;42.658;23.350;2023-04-10T04:59:18;103.00;;;95.07;;
2035;SDS011;23642;42.658;23.350;2023-04-10T05:01:47;102.37;;;94.93;;
2035;SDS011;23642;42.658;23.350;2023-04-10T05:04:14;106.13;;;97.20;;
2035;SDS011;23642;42.658;23.350;2023-04-10T05:06:43;107.77;;;98.63;;
2035;SDS011;23642;42.658;23.350;2023-04-10T05:09:13;105.20;;;97.80;;
2035;SDS011;23642;42.658;23.350;2023-04-10T05:11:39;103.17;;;96.13;;
2035;SDS011;23642;42.658;23.350;2023-04-10T05:14:06;101.43;;;94.47;;
2035;SDS011;23642;42.658;23.350;2023-04-10T05:16:33;108.17;;;99.37;;
2035;SDS011;23642;42.658;23.350;2023-04-10T05:19:00;105.53;;;97.87;;
2035;SDS011;23642;42.658;23.350;2023-04-10T05:21:27;102.60;;;95.23;;
2035;SDS011;23642;42.658;23.350;2023-04-10T05:23:56;104.67;;;97.37;;
2035;SDS011;23642;42.658;23.350;2023-04-10T05:26:23;106.83;;;99.43;;
2035;SDS011;23642;42.658;23.350;2023-04-10T05:28:50;106.33;;;99.03;;
2035;SDS011;23642;42.658;23.350;2023-04-10T05:31:17;103.83;;;96.47;;
2035;SDS011;23642;42.658;23.350;2023-04-10T05:33:43;104.30;;;96.37;;
2035;SDS011;23642;42.658;23.350;2023-04-10T05:36:11;103.97;;;96.57;;
2035;SDS011;23642;42.658;23.350;2023-04-10T05:38:38;102.90;;;96.00;;
2035;SDS011;23642;42.658;23.350;2023-04-10T05:41:06;101.90;;;95.00;;
2035;SDS011;23642;42.658;23.350;2023-04-10T05:43:33;105.60;;;98.50;;
2035;SDS011;23642;42.658;23.350;2023-04-10T05:46:00;102.17;;;94.97;;
2035;SDS011;23642;42.658;23.350;2023-04-10T05:48:27;103.27;;;96.33;;
2035;SDS011;23642;42.658;23.350;2023-04-10T05:50:54;103.57;;;96.37;;
2035;SDS011;23642;42.658;23.350;2023-04-10T05:53:21;102.57;;;95.60;;
2035;SDS011;23642;42.658;23.350;2023-04-10T05:55:55;101.73;;;94.63;;
2035;SDS011;23642;42.658;23.350;2023-04-10T05:58:25;104.03;;;96.30;;
2035;SDS011;23642;42.658;23.350;2023-04-10T06:00:52;103.33;;;96.13;;
2035;SDS011;23642;42.658;23.350;2023-04-10T06:03:25;104.80;;;97.70;;
2035;SDS011;23642;42.658;23.350;2023-04-10T06:05:54;106.43;;;99.10;;
2035;SDS011;23642;42.658;23.350;2023-04-10T06:08:21;107.87;;;100.67;;
2035;SDS011;23642;42.658;23.350;2023-04-10T06:10:48;108.57;;;100.87;;
2035;SDS011;23642;42.658;23.350;2023-04-10T06:13:16;109.37;;;101.60;;
2035;SDS011;23642;42.658;23.350;2023-04-10T06:15:44;109.50;;;102.00;;
2035;SDS011;23642;42.658;23.350;2023-04-10T06:18:11;107.97;;;100.67;;
2035;SDS011;23642;42.658;23.350;2023-04-10T06:20:40;111.37;;;103.77;;
2035;SDS011;23642;42.658;23.350;2023-04-10T06:23:07;109.43;;;102.20;;
2035;SDS011;23642;42.658;23.350;2023-04-10T06:25:34;109.50;;;101.87;;
2035;SDS011;23642;42.658;23.350;2023-04-10T06:28:02;108.43;;;101.03;;
2035;SDS011;23642;42.658;23.350;2023-04-10T06:30:29;115.77;;;106.90;;
2035;SDS011;23642;42.658;23.350;2023-04-10T06:33:02;109.83;;;102.43;;
2035;SDS011;23642;42.658;23.350;2023-04-10T06:35:29;111.03;;;103.47;;
2035;SDS011;23642;42.658;23.350;2023-04-10T06:37:56;117.93;;;110.20;;
2035;SDS011;23642;42.658;23.350;2023-04-10T06:40:23;116.67;;;108.97;;
2035;SDS011;23642;42.658;23.350;2023-04-10T06:42:52;116.63;;;109.20;;
2035;SDS011;23642;42.658;23.350;2023-04-10T06:45:19;118.10;;;110.00;;
2035;SDS011;23642;42.658;23.350;2023-04-10T06:47:48;120.40;;;112.50;;
2035;SDS011;23642;42.658;23.350;2023-04-10T06:50:16;120.80;;;112.70;;
2035;SDS011;23642;42.658;23.350;2023-04-10T06:52:43;118.70;;;110.67;;
2035;SDS011;23642;42.658;23.350;2023-04-10T06:55:12;115.50;;;107.90;;
2035;SDS011;23642;42.658;23.350;2023-04-10T06:57:39;118.33;;;110.43;;
2035;SDS011;23642;42.658;23.350;2023-04-10T07:00:06;117.47;;;109.73;;
2035;SDS011;23642;42.658;23.350;2023-04-10T07:02:34;118.93;;;110.90;;
2035;SDS011;23642;42.658;23.350;2023-04-10T07:05:00;117.00;;;109.03;;
2035;SDS011;23642;42.658;23.350;2023-04-10T07:07:28;117.63;;;109.00;;
2035;SDS011;23642;42.658;23.350;2023-04-10T07:09:55;115.57;;;107.17;;
2035;SDS011;23642;42.658;23.350;2023-04-10T07:12:22;119.03;;;111.00;;
2035;SDS011;23642;42.658;23.350;2023-04-10T07:14:51;117.47;;;109.40;;
2035;SDS011;23642;42.658;23.350;2023-04-10T07:17:19;117.20;;;109.60;;
2035;SDS011;23642;42.658;23.350;2023-04-10T07:19:45;117.13;;;109.57;;
2035;SDS011;23642;42.658;23.350;2023-04-10T07:22:12;113.07;;;105.37;;
2035;SDS011;23642;42.658;23.350;2023-04-10T07:24:41;116.10;;;107.80;;
2035;SDS011;23642;42.658;23.350;2023-04-10T07:27:08;116.33;;;108.60;;
2035;SDS011;23642;42.658;23.350;2023-04-10T07:29:36;117.27;;;109.53;;
2035;SDS011;23642;42.658;23.350;2023-04-10T07:32:03;118.67;;;110.70;;
2035;SDS011;23642;42.658;23.350;2023-04-10T07:34:30;119.57;;;111.57;;
2035;SDS011;23642;42.658;23.350;2023-04-10T07:36:57;116.70;;;108.80;;
2035;SDS011;23642;42.658;23.350;2023-04-10T07:39:25;117.60;;;109.50;;
2035;SDS011;23642;42.658;23.350;2023-04-10T07:41:59;118.60;;;110.23;;
2035;SDS011;23642;42.658;23.350;2023-04-10T07:44:35;121.53;;;113.10;;
2035;SDS011;23642;42.658;23.350;2023-04-10T07:47:02;122.27;;;114.33;;
2035;SDS011;23642;42.658;23.350;2023-04-10T07:49:31;120.57;;;112.90;;
2035;SDS011;23642;42.658;23.350;2023-04-10T07:52:03;122.87;;;114.70;;
2035;SDS011;23642;42.658;23.350;2023-04-10T07:54:30;119.27;;;111.30;;
2035;SDS011;23642;42.658;23.350;2023-04-10T07:56:59;124.37;;;116.27;;
2035;SDS011;23642;42.658;23.350;2023-04-10T07:59:26;123.97;;;115.87;;
2035;SDS011;23642;42.658;23.350;2023-04-10T08:01:56;127.43;;;119.00;;
2035;SDS011;23642;42.658;23.350;2023-04-10T08:04:24;122.83;;;114.73;;
2035;SDS011;23642;42.658;23.350;2023-04-10T08:06:51;122.30;;;114.30;;
2035;SDS011;23642;42.658;23.350;2023-04-10T08:09:18;123.40;;;115.50;;
2035;SDS011;23642;42.658;23.350;2023-04-10T08:11:45;120.10;;;112.17;;
2035;SDS011;23642;42.658;23.350;2023-04-10T08:14:15;120.83;;;112.87;;
2035;SDS011;23642;42.658;23.350;2023-04-10T08:16:42;123.70;;;115.57;;
2035;SDS011;23642;42.658;23.350;2023-04-10T08:19:09;126.37;;;117.77;;
2035;SDS011;23642;42.658;23.350;2023-04-10T08:21:39;123.03;;;114.60;;
2035;SDS011;23642;42.658;23.350;2023-04-10T08:24:09;120.43;;;112.33;;
2035;SDS011;23642;42.658;23.350;2023-04-10T08:26:46;119.60;;;111.80;;
2035;SDS011;23642;42.658;23.350;2023-04-10T08:29:14;124.60;;;116.00;;
2035;SDS011;23642;42.658;23.350;2023-04-10T08:31:45;121.87;;;114.27;;
2035;SDS011;23642;42.658;23.350;2023-04-10T08:34:24;117.90;;;110.30;;
2035;SDS011;23642;42.658;23.350;2023-04-10T08:36:56;115.87;;;108.13;;
2035;SDS011;23642;42.658;23.350;2023-04-10T08:39:34;122.50;;;113.63;;
2035;SDS011;23642;42.658;23.350;2023-04-10T08:42:05;124.10;;;116.20;;
2035;SDS011;23642;42.658;23.350;2023-04-10T08:44:35;123.80;;;115.70;;
2035;SDS011;23642;42.658;23.350;2023-04-10T08:47:05;126.60;;;118.30;;
2035;SDS011;23642;42.658;23.350;2023-04-10T08:49:36;120.30;;;112.00;;
2035;SDS011;23642;42.658;23.350;2023-04-10T08:52:12;118.13;;;110.27;;
2035;SDS011;23642;42.658;23.350;2023-04-10T08:54:42;116.67;;;109.20;;
2035;SDS011;23642;42.658;23.350;2023-04-10T08:57:15;125.50;;;117.27;;
2035;SDS011;23642;42.658;23.350;2023-04-10T08:59:49;124.80;;;117.00;;
2035;SDS011;23642;42.658;23.350;2023-04-10T09:02:17;124.27;;;116.30;;
2035;SDS011;23642;42.658;23.350;2023-04-10T09:04:50;119.30;;;111.60;;
2035;SDS011;23642;42.658;23.350;2023-04-10T09:07:21;118.43;;;110.90;;
2035;SDS011;23642;42.658;23.350;2023-04-10T09:09:48;116.97;;;109.57;;
2035;SDS011;23642;42.658;23.350;2023-04-10T09:12:16;122.70;;;114.90;;
2035;SDS011;23642;42.658;23.350;2023-04-10T09:14:43;122.00;;;113.80;;
2035;SDS011;23642;42.658;23.350;2023-04-10T09:17:15;123.40;;;115.50;;
2035;SDS011;23642;42.658;23.350;2023-04-10T09:19:44;114.53;;;106.83;;
2035;SDS011;23642;42.658;23.350;2023-04-10T09:22:14;114.50;;;107.00;;
2035;SDS011;23642;42.658;23.350;2023-04-10T09:24:43;115.47;;;108.20;;
2035;SDS011;23642;42.658;23.350;2023-04-10T09:27:10;116.83;;;109.20;;
2035;SDS011;23642;42.658;23.350;2023-04-10T09:29:53;120.20;;;112.77;;
2035;SDS011;23642;42.658;23.350;2023-04-10T09:32:35;123.10;;;115.60;;
2035;SDS011;23642;42.658;23.350;2023-04-10T09:35:04;112.53;;;105.13;;
2035;SDS011;23642;42.658;23.350;2023-04-10T09:37:32;114.97;;;107.20;;
2035;SDS011;23642;42.658;23.350;2023-04-10T09:40:00;112.40;;;105.20;;
2035;SDS011;23642;42.658;23.350;2023-04-10T09:42:29;111.97;;;104.70;;
2035;SDS011;23642;42.658;23.350;2023-04-10T09:44:57;120.23;;;112.60;;
2035;SDS011;23642;42.658;23.350;2023-04-10T09:47:24;118.70;;;111.30;;
2035;SDS011;23642;42.658;23.350;2023-04-10T09:49:53;114.60;;;107.03;;
2035;SDS011;23642;42.658;23.350;2023-04-10T09:52:21;113.50;;;106.20;;
2035;SDS011;23642;42.658;23.350;2023-04-10T09:54:50;116.07;;;108.37;;
2035;SDS011;23642;42.658;23.350;2023-04-10T09:57:17;114.53;;;106.93;;
2035;SDS011;23642;42.658;23.350;2023-04-10T09:59:47;124.80;;;116.90;;
2035;SDS011;23642;42.658;23.350;2023-04-10T10:02:16;120.07;;;112.43;;
2035;SDS011;23642;42.658;23.350;2023-04-10T10:04:43;117.93;;;110.43;;
2035;SDS011;23642;42.658;23.350;2023-04-10T10:07:13;114.53;;;106.97;;
2035;SDS011;23642;42.658;23.350;2023-04-10T10:09:45;113.80;;;106.33;;
2035;SDS011;23642;42.658;23.350;2023-04-10T10:12:15;114.33;;;107.13;;
2035;SDS011;23642;42.658;23.350;2023-04-10T10:14:53;113.63;;;105.80;;
2035;SDS011;23642;42.658;23.350;2023-04-10T10:17:27;119.30;;;111.80;;
2035;SDS011;23642;42.658;23.350;2023-04-10T10:19:59;115.53;;;108.00;;
2035;SDS011;23642;42.658;23.350;2023-04-10T10:22:31;120.30;;;112.87;;
2035;SDS011;23642;42.658;23.350;2023-04-10T10:24:58;114.50;;;107.50;;
2035;SDS011;23642;42.658;23.350;2023-04-10T10:27:27;111.53;;;104.27;;
2035;SDS011;23642;42.658;23.350;2023-04-10T10:29:58;109.60;;;102.70;;
2035;SDS011;23642;42.658;23.350;2023-04-10T10:32:28;114.97;;;107.40;;
2035;SDS011;23642;42.658;23.350;2023-04-10T10:34:56;118.27;;;111.10;;
2035;SDS011;23642;42.658;23.350;2023-04-10T10:37:23;120.47;;;112.67;;
2035;SDS011;23642;42.658;23.350;2023-04-10T10:39:58;118.10;;;110.57;;
2035;SDS011;23642;42.658;23.350;2023-04-10T10:42:31;113.17;;;106.17;;
2035;SDS011;23642;42.658;23.350;2023-04-10T10:45:06;109.07;;;102.17;;
2035;SDS011;23642;42.658;23.350;2023-04-10T10:47:39;112.33;;;105.33;;
2035;SDS011;23642;42.658;23.350;2023-04-10T10:50:07;112.00;;;104.70;;
2035;SDS011;23642;42.658;23.350;2023-04-10T10:52:41;118.40;;;110.50;;
2035;SDS011;23642;42.658;23.350;2023-04-10T10:55:30;119.83;;;111.67;;
2035;SDS011;23642;42.658;23.350;2023-04-10T10:57:59;110.70;;;103.80;;
2035;SDS011;23642;42.658;23.350;2023-04-10T11:03:44;111.80;;;104.67;;
2035;SDS011;23642;42.658;23.350;2023-04-10T11:06:11;113.07;;;105.87;;
2035;SDS011;23642;42.658;23.350;2023-04-10T11:08:44;119.13;;;111.83;;
2035;SDS011;23642;42.658;23.350;2023-04-10T11:11:18;117.77;;;110.17;;
2035;SDS011;23642;42.658;23.350;2023-04-10T11:16:47;111.17;;;104.10;;
2035;SDS011;23642;42.658;23.350;2023-04-10T11:19:13;109.77;;;102.90;;
2035;SDS011;23642;42.658;23.350;2023-04-10T11:27:39;115.87;;;108.87;;
2035;SDS011;23642;42.658;23.350;2023-04-10T11:32:54;109.87;;;103.17;;
2035;SDS011;23642;42.658;23.350;2023-04-10T11:35:24;111.40;;;104.50;;
2035;SDS011;23642;42.658;23.350;2023-04-10T11:38:06;109.93;;;102.53;;
2035;SDS011;23642;42.658;23.350;2023-04-10T11:40:36;109.50;;;102.70;;
2035;SDS011;23642;42.658;23.350;2023-04-10T11:43:20;108.30;;;101.60;;
2035;SDS011;23642;42.658;23.350;2023-04-10T11:45:47;115.07;;;107.97;;
2035;SDS011;23642;42.658;23.350;2023-04-10T11:48:14;115.63;;;108.33;;
2035;SDS011;23642;42.658;23.350;2023-04-10T11:50:41;117.30;;;109.40;;
2035;SDS011;23642;42.658;23.350;2023-04-10T11:53:16;111.57;;;104.67;;
2035;SDS011;23642;42.658;23.350;2023-04-10T11:55:44;107.47;;;100.47;;
2035;SDS011;23642;42.658;23.350;2023-04-10T12:00:59;109.43;;;102.70;;
2035;SDS011;23642;42.658;23.350;2023-04-10T12:03:31;107.93;;;101.33;;
2035;SDS011;23642;42.658;23.350;2023-04-10T12:06:01;116.43;;;108.93;;
2035;SDS011;23642;42.658;23.350;2023-04-10T12:08:31;114.00;;;106.23;;
2035;SDS011;23642;42.658;23.350;2023-04-10T12:10:59;113.70;;;106.67;;
2035;SDS011;23642;42.658;23.350;2023-04-10T12:13:28;111.87;;;105.17;;
2035;SDS011;23642;42.658;23.350;2023-04-10T12:15:58;112.40;;;105.50;;
2035;SDS011;23642;42.658;23.350;2023-04-10T12:18:26;106.73;;;100.13;;
2035;SDS011;23642;42.658;23.350;2023-04-10T12:20:54;109.90;;;103.00;;
2035;SDS011;23642;42.658;23.350;2023-04-10T12:23:21;111.13;;;103.87;;
2035;SDS011;23642;42.658;23.350;2023-04-10T12:25:49;115.10;;;107.80;;
2035;SDS011;23642;42.658;23.350;2023-04-10T12:28:20;114.27;;;107.23;;
2035;SDS011;23642;42.658;23.350;2023-04-10T12:30:51;116.00;;;108.80;;
2035;SDS011;23642;42.658;23.350;2023-04-10T12:33:19;115.37;;;108.07;;
2035;SDS011;23642;42.658;23.350;2023-04-10T12:35:47;122.83;;;114.37;;
2035;SDS011;23642;42.658;23.350;2023-04-10T12:38:14;116.47;;;109.27;;
2035;SDS011;23642;42.658;23.350;2023-04-10T12:43:31;107.77;;;100.50;;
2035;SDS011;23642;42.658;23.350;2023-04-10T12:46:04;106.77;;;99.87;;
2035;SDS011;23642;42.658;23.350;2023-04-10T12:48:32;107.27;;;100.47;;
2035;SDS011;23642;42.658;23.350;2023-04-10T12:50:59;108.93;;;101.87;;
2035;SDS011;23642;42.658;23.350;2023-04-10T12:53:26;109.90;;;103.03;;
2035;SDS011;23642;42.658;23.350;2023-04-10T12:56:01;107.60;;;101.00;;
2035;SDS011;23642;42.658;23.350;2023-04-10T12:58:30;114.53;;;107.60;;
2035;SDS011;23642;42.658;23.350;2023-04-10T13:00:58;113.30;;;106.50;;
2035;SDS011;23642;42.658;23.350;2023-04-10T13:03:30;110.00;;;103.00;;
2035;SDS011;23642;42.658;23.350;2023-04-10T13:06:00;108.67;;;101.87;;
2035;SDS011;23642;42.658;23.350;2023-04-10T13:08:26;110.37;;;103.57;;
2035;SDS011;23642;42.658;23.350;2023-04-10T13:10:56;109.80;;;102.90;;
2035;SDS011;23642;42.658;23.350;2023-04-10T13:13:27;107.80;;;101.10;;
2035;SDS011;23642;42.658;23.350;2023-04-10T13:15:55;107.57;;;100.87;;
2035;SDS011;23642;42.658;23.350;2023-04-10T13:18:22;115.23;;;108.13;;
2035;SDS011;23642;42.658;23.350;2023-04-10T13:20:51;116.07;;;109.00;;
2035;SDS011;23642;42.658;23.350;2023-04-10T13:23:18;114.90;;;107.90;;
2035;SDS011;23642;42.658;23.350;2023-04-10T13:25:48;106.87;;;100.27;;
2035;SDS011;23642;42.658;23.350;2023-04-10T13:28:15;108.77;;;101.80;;
2035;SDS011;23642;42.658;23.350;2023-04-10T13:30:43;109.87;;;103.07;;
2035;SDS011;23642;42.658;23.350;2023-04-10T13:33:11;111.07;;;103.93;;
2035;SDS011;23642;42.658;23.350;2023-04-10T13:35:39;111.30;;;104.20;;
2035;SDS011;23642;42.658;23.350;2023-04-10T13:38:07;118.03;;;110.93;;
2035;SDS011;23642;42.658;23.350;2023-04-10T13:40:36;116.83;;;109.73;;
2035;SDS011;23642;42.658;23.350;2023-04-10T13:43:03;117.23;;;110.13;;
2035;SDS011;23642;42.658;23.350;2023-04-10T13:45:36;111.40;;;104.30;;
2035;SDS011;23642;42.658;23.350;2023-04-10T13:48:03;111.17;;;104.27;;
2035;SDS011;23642;42.658;23.350;2023-04-10T13:50:31;112.90;;;105.90;;
2035;SDS011;23642;42.658;23.350;2023-04-10T13:52:58;114.93;;;107.73;;
2035;SDS011;23642;42.658;23.350;2023-04-10T13:55:27;114.10;;;106.90;;
2035;SDS011;23642;42.658;23.350;2023-04-10T13:57:54;113.20;;;106.20;;
2035;SDS011;23642;42.658;23.350;2023-04-10T14:00:21;120.37;;;112.73;;
2035;SDS011;23642;42.658;23.350;2023-04-10T14:02:47;119.50;;;111.77;;
2035;SDS011;23642;42.658;23.350;2023-04-10T14:05:14;120.17;;;112.37;;
2035;SDS011;23642;42.658;23.350;2023-04-10T14:07:41;113.77;;;106.67;;
2035;SDS011;23642;42.658;23.350;2023-04-10T14:10:08;111.80;;;104.70;;
2035;SDS011;23642;42.658;23.350;2023-04-10T14:12:37;110.60;;;103.70;;
2035;SDS011;23642;42.658;23.350;2023-04-10T14:15:04;109.50;;;102.70;;
2035;SDS011;23642;42.658;23.350;2023-04-10T14:17:31;113.87;;;106.77;;
2035;SDS011;23642;42.658;23.350;2023-04-10T14:19:58;115.77;;;108.50;;
2035;SDS011;23642;42.658;23.350;2023-04-10T14:22:25;115.70;;;108.70;;
2035;SDS011;23642;42.658;23.350;2023-04-10T14:24:54;115.03;;;108.03;;
2035;SDS011;23642;42.658;23.350;2023-04-10T14:27:21;107.20;;;100.40;;
2035;SDS011;23642;42.658;23.350;2023-04-10T14:29:50;104.70;;;98.30;;
2035;SDS011;23642;42.658;23.350;2023-04-10T14:32:17;105.17;;;98.63;;
2035;SDS011;23642;42.658;23.350;2023-04-10T14:34:44;104.93;;;98.50;;
2035;SDS011;23642;42.658;23.350;2023-04-10T14:37:11;99.80;;;93.40;;
2035;SDS011;23642;42.658;23.350;2023-04-10T14:39:38;96.37;;;90.37;;